Time;durP1;ratioP1;P1;durP2;ratioP2;P2;SDS_P1;SDS_P2;PMS_P1;PMS_P2;Temp;Humidity;BMP_temperature;BMP_pressure;BME280_temperature;BME280_humidity;BME280_pressure;Samples;Min_cycle;Max_cycle;Signal;HPM_P1;HPM_P2
2022/11/09 00:00:00;;;;;;;11.83;8.77;;;8.30;99.90;;;;;;5017487;28;20182;-86
2022/11/09 00:02:26;;;;;;;11.00;8.73;;;8.30;99.90;;;;;;5033533;28;20170;-86
2022/11/09 00:04:52;;;;;;;13.67;9.90;;;8.20;99.90;;;;;;5016887;28;20218;-86
2022/11/09 00:07:18;;;;;;;13.50;9.90;;;8.20;99.90;;;;;;5033287;28;20193;-86
2022/11/09 00:09:44;;;;;;;15.10;10.30;;;8.20;99.90;;;;;;5033293;28;20656;-86
2022/11/09 00:12:10;;;;;;;13.27;9.80;;;8.20;99.90;;;;;;5033472;28;20639;-86
2022/11/09 00:14:37;;;;;;;13.10;10.03;;;8.20;99.90;;;;;;5016352;28;20236;-86
2022/11/09 00:17:03;;;;;;;12.13;9.60;;;8.20;99.90;;;;;;5016784;28;20182;-86
2022/11/09 00:19:29;;;;;;;12.80;9.70;;;8.20;99.90;;;;;;5016431;28;20265;-86
2022/11/09 00:21:55;;;;;;;13.00;9.07;;;8.20;99.90;;;;;;5016825;28;20247;-86
2022/11/09 00:24:21;;;;;;;15.07;10.37;;;8.20;99.90;;;;;;4997112;28;20222;-86
2022/11/09 00:26:47;;;;;;;13.60;9.23;;;8.20;99.90;;;;;;5013124;28;20218;-86
2022/11/09 00:29:12;;;;;;;14.20;9.77;;;8.30;99.90;;;;;;5000958;28;20178;-86
2022/11/09 00:31:39;;;;;;;11.77;9.83;;;8.20;99.90;;;;;;5033020;28;20182;-86
2022/11/09 00:34:06;;;;;;;11.53;8.50;;;8.20;99.90;;;;;;5016509;28;20202;-86
2022/11/09 00:36:33;;;;;;;12.60;9.40;;;8.20;99.90;;;;;;5033067;28;20238;-86
2022/11/09 00:39:00;;;;;;;13.87;9.00;;;8.20;99.90;;;;;;5032602;28;20214;-86
2022/11/09 00:41:53;;;;;;;12.73;8.77;;;8.20;99.90;;;;;;5032814;28;20189;-86
2022/11/09 00:44:18;;;;;;;12.27;8.70;;;8.20;99.90;;;;;;5016160;28;20198;-86
2022/11/09 00:46:44;;;;;;;12.93;8.30;;;8.20;99.90;;;;;;5040106;28;20205;-86
2022/11/09 00:49:10;;;;;;;10.47;8.07;;;8.10;99.90;;;;;;5035957;28;20180;-86
2022/11/09 00:51:36;;;;;;;13.20;8.63;;;8.10;99.90;;;;;;5024756;28;20202;-86
2022/11/09 00:54:02;;;;;;;13.77;8.80;;;8.10;99.90;;;;;;5016034;28;20203;-86
2022/11/09 00:56:28;;;;;;;11.17;7.97;;;8.20;99.90;;;;;;5016131;28;20198;-86
2022/11/09 00:58:54;;;;;;;11.27;8.43;;;8.10;99.90;;;;;;5015946;28;20178;-86
2022/11/09 01:01:21;;;;;;;12.60;8.67;;;8.10;99.90;;;;;;5016217;28;20628;-86
2022/11/09 01:03:47;;;;;;;14.40;8.27;;;8.10;99.90;;;;;;5015819;28;20278;-86
2022/11/09 01:06:21;;;;;;;10.77;8.00;;;8.10;99.90;;;;;;5016072;28;20191;-86
2022/11/09 01:08:48;;;;;;;10.87;8.10;;;8.10;99.90;;;;;;5048607;28;20170;-86
2022/11/09 01:11:16;;;;;;;10.13;7.87;;;8.10;99.90;;;;;;5032711;28;20185;-86
2022/11/09 01:13:42;;;;;;;11.77;7.97;;;8.20;99.90;;;;;;5031939;28;20206;-86
2022/11/09 01:16:11;;;;;;;13.37;8.90;;;8.10;99.90;;;;;;5032087;28;20225;-86
2022/11/09 01:18:38;;;;;;;11.27;8.40;;;8.10;99.90;;;;;;5031979;28;20229;-86
2022/11/09 01:21:05;;;;;;;10.20;8.07;;;8.00;99.90;;;;;;5031967;28;20548;-86
2022/11/09 01:23:32;;;;;;;9.93;7.50;;;8.00;99.90;;;;;;5031976;28;20217;-86
2022/11/09 01:25:59;;;;;;;10.07;7.50;;;8.00;99.90;;;;;;5031436;28;20201;-86
2022/11/09 01:28:26;;;;;;;10.00;7.47;;;7.90;99.90;;;;;;5015297;28;20194;-86
2022/11/09 01:30:51;;;;;;;9.23;7.50;;;7.90;99.90;;;;;;5015415;28;20182;-86
2022/11/09 01:33:18;;;;;;;10.13;7.37;;;7.90;99.90;;;;;;5015644;28;20179;-86
2022/11/09 01:35:44;;;;;;;11.90;7.80;;;8.00;99.90;;;;;;5015432;28;20301;-86
2022/11/09 01:38:11;;;;;;;12.10;8.00;;;7.90;99.90;;;;;;5032823;28;20259;-86
2022/11/09 01:40:39;;;;;;;12.77;8.63;;;7.90;99.90;;;;;;5015203;28;20185;-86
2022/11/09 01:43:15;;;;;;;12.67;7.73;;;7.90;99.90;;;;;;5031609;28;20170;-86
2022/11/09 01:45:47;;;;;;;9.60;8.30;;;7.90;99.90;;;;;;5015180;28;20248;-86
2022/11/09 01:48:17;;;;;;;11.67;8.67;;;8.00;99.90;;;;;;5015073;28;20920;-86
2022/11/09 01:50:58;;;;;;;13.60;8.47;;;8.00;99.90;;;;;;5015146;28;20182;-86
2022/11/09 01:53:30;;;;;;;11.57;8.33;;;8.00;99.90;;;;;;5014939;28;20207;-86
2022/11/09 01:56:01;;;;;;;11.10;8.67;;;8.00;99.90;;;;;;5031560;28;20225;-86
2022/11/09 01:58:32;;;;;;;11.47;8.47;;;8.00;99.90;;;;;;5031126;28;20178;-86
2022/11/09 02:00:59;;;;;;;10.47;7.63;;;8.00;99.90;;;;;;5014744;28;20217;-86
2022/11/09 02:03:36;;;;;;;10.77;7.83;;;8.00;99.90;;;;;;5014819;28;20195;-86
2022/11/09 02:06:04;;;;;;;9.70;7.90;;;7.90;99.90;;;;;;5014682;28;20252;-86
2022/11/09 02:08:30;;;;;;;11.47;8.17;;;7.90;99.90;;;;;;5014906;28;20642;-86
2022/11/09 02:11:08;;;;;;;10.53;8.17;;;7.90;99.90;;;;;;5031217;28;20186;-86
2022/11/09 02:13:37;;;;;;;12.60;8.57;;;7.90;99.90;;;;;;5014665;28;20301;-86
2022/11/09 02:16:10;;;;;;;9.30;8.20;;;7.90;99.90;;;;;;5015190;28;20233;-86
2022/11/09 02:18:43;;;;;;;9.43;7.87;;;8.00;99.90;;;;;;5014674;28;20183;-86
2022/11/09 02:21:09;;;;;;;9.97;7.50;;;8.10;99.90;;;;;;5015081;28;20175;-85
2022/11/09 02:23:35;;;;;;;10.90;8.60;;;8.10;99.90;;;;;;5014516;28;20210;-86
2022/11/09 02:26:09;;;;;;;13.77;9.07;;;8.10;99.90;;;;;;5014944;28;20175;-86
2022/11/09 02:28:38;;;;;;;13.43;9.23;;;8.10;99.90;;;;;;5014613;28;20261;-86
2022/11/09 02:31:07;;;;;;;11.87;8.53;;;8.10;99.90;;;;;;5014847;28;20193;-86
2022/11/09 02:33:51;;;;;;;10.30;8.20;;;8.10;99.90;;;;;;5012999;28;20201;-86
2022/11/09 02:36:17;;;;;;;12.27;8.50;;;8.10;99.90;;;;;;5014701;28;20201;-86
2022/11/09 02:38:43;;;;;;;10.73;8.40;;;8.10;99.90;;;;;;5017168;28;20186;-86
2022/11/09 02:41:12;;;;;;;10.40;8.27;;;8.10;99.90;;;;;;5024195;28;20252;-86
2022/11/09 02:43:39;;;;;;;11.13;8.53;;;8.20;99.90;;;;;;5010410;28;20205;-86
2022/11/09 02:46:05;;;;;;;10.10;8.17;;;8.20;99.90;;;;;;5018409;28;20631;-86
2022/11/09 02:48:31;;;;;;;12.70;8.20;;;8.20;99.90;;;;;;5034468;28;20186;-86
2022/11/09 02:50:57;;;;;;;11.63;8.67;;;8.30;99.90;;;;;;5034673;28;20179;-86
2022/11/09 02:53:23;;;;;;;11.73;8.47;;;8.30;99.90;;;;;;5018383;28;20244;-86
2022/11/09 02:55:49;;;;;;;10.40;8.10;;;8.30;99.90;;;;;;5018271;28;20207;-86
2022/11/09 02:58:16;;;;;;;11.00;8.20;;;8.40;99.90;;;;;;5034385;28;20186;-86
2022/11/09 03:00:42;;;;;;;11.20;8.60;;;8.40;99.90;;;;;;5018620;28;20182;-86
2022/11/09 03:03:10;;;;;;;9.47;7.60;;;8.30;99.90;;;;;;5018238;28;20174;-86
2022/11/09 03:05:36;;;;;;;10.37;8.37;;;8.40;99.90;;;;;;5018088;28;20192;-85
2022/11/09 03:08:03;;;;;;;13.13;8.10;;;8.40;99.90;;;;;;5034383;28;20182;-86
2022/11/09 03:10:32;;;;;;;11.17;8.43;;;8.30;99.90;;;;;;5033774;28;20187;-86
2022/11/09 03:12:59;;;;;;;11.43;8.23;;;8.40;99.90;;;;;;5034440;28;20182;-86
2022/11/09 03:15:25;;;;;;;11.27;8.30;;;8.30;99.90;;;;;;5034462;28;20210;-86
2022/11/09 03:17:51;;;;;;;10.00;8.13;;;8.30;99.90;;;;;;5018124;28;20211;-86
2022/11/09 03:20:18;;;;;;;10.83;7.70;;;8.30;99.90;;;;;;5018066;28;20229;-86
2022/11/09 03:22:44;;;;;;;10.40;7.33;;;8.40;99.90;;;;;;5017750;28;20179;-86
2022/11/09 03:25:11;;;;;;;11.43;8.03;;;8.40;99.90;;;;;;5017799;28;20262;-86
2022/11/09 03:27:37;;;;;;;9.07;7.53;;;8.50;99.90;;;;;;5017624;28;20213;-86
2022/11/09 03:30:04;;;;;;;9.97;7.73;;;8.60;99.90;;;;;;5017715;28;20186;-86
2022/11/09 03:32:30;;;;;;;10.70;8.27;;;8.60;99.90;;;;;;5034002;28;20188;-86
2022/11/09 03:34:56;;;;;;;11.13;8.17;;;8.70;99.90;;;;;;5017346;28;20218;-86
2022/11/09 03:37:22;;;;;;;10.13;7.70;;;8.70;99.90;;;;;;5033847;28;20186;-86
2022/11/09 03:39:48;;;;;;;10.90;8.00;;;8.70;99.90;;;;;;5034265;28;20181;-86
2022/11/09 03:42:14;;;;;;;10.23;7.40;;;8.80;99.90;;;;;;5033871;28;20205;-86
2022/11/09 03:44:40;;;;;;;10.67;8.13;;;8.80;99.90;;;;;;5033743;28;20198;-86
2022/11/09 03:47:06;;;;;;;10.27;7.70;;;8.80;99.90;;;;;;5033788;28;20174;-86
2022/11/09 03:49:32;;;;;;;10.43;7.70;;;8.90;99.90;;;;;;5033118;28;20225;-86
2022/11/09 03:52:01;;;;;;;11.30;8.17;;;8.90;99.90;;;;;;5033765;28;20175;-86
2022/11/09 03:54:27;;;;;;;10.73;8.13;;;8.80;99.90;;;;;;5016013;28;20259;-86
2022/11/09 03:56:53;;;;;;;10.60;8.37;;;8.80;99.90;;;;;;5016836;28;20210;-86
2022/11/09 03:59:19;;;;;;;9.73;7.47;;;8.80;99.90;;;;;;5017106;28;20269;-86
2022/11/09 04:01:45;;;;;;;10.23;7.43;;;8.80;99.90;;;;;;5016991;28;20279;-86
2022/11/09 04:04:11;;;;;;;10.93;8.10;;;8.70;99.90;;;;;;5016706;28;20222;-86
2022/11/09 04:06:36;;;;;;;9.07;7.07;;;8.70;99.90;;;;;;5017122;28;20178;-86
2022/11/09 04:09:02;;;;;;;10.47;7.43;;;8.70;99.90;;;;;;5016750;28;20187;-86
2022/11/09 04:11:28;;;;;;;9.27;7.97;;;8.70;99.90;;;;;;5016845;28;20182;-86
2022/11/09 04:13:54;;;;;;;9.33;7.60;;;8.70;99.90;;;;;;5017023;28;20217;-86
2022/11/09 04:16:20;;;;;;;9.63;7.73;;;8.70;99.90;;;;;;5017323;28;20248;-87
2022/11/09 04:18:46;;;;;;;11.13;8.33;;;8.70;99.90;;;;;;5015960;28;20178;-86
2022/11/09 04:21:15;;;;;;;10.63;8.20;;;8.60;99.90;;;;;;5016369;28;20188;-86
2022/11/09 04:23:40;;;;;;;11.50;8.40;;;8.60;99.90;;;;;;5016569;28;20210;-86
2022/11/09 04:26:06;;;;;;;10.90;8.60;;;8.60;99.90;;;;;;5016434;28;20182;-86
2022/11/09 04:28:32;;;;;;;10.37;7.90;;;8.60;99.90;;;;;;5032987;28;20185;-86
2022/11/09 04:31:02;;;;;;;12.13;7.80;;;8.60;99.90;;;;;;5016307;28;20216;-86
2022/11/09 04:33:28;;;;;;;11.70;8.00;;;8.60;99.90;;;;;;5033043;28;20202;-86
2022/11/09 04:35:54;;;;;;;12.10;7.97;;;8.60;99.90;;;;;;5016199;28;20304;-86
2022/11/09 04:38:20;;;;;;;13.27;9.13;;;8.60;99.90;;;;;;5032756;28;20266;-86
2022/11/09 04:40:46;;;;;;;10.87;8.10;;;8.70;99.90;;;;;;5016274;28;20255;-87
2022/11/09 04:43:19;;;;;;;10.07;7.60;;;8.70;99.90;;;;;;5029841;28;20174;-87
2022/11/09 04:45:46;;;;;;;8.97;7.60;;;8.70;99.90;;;;;;5016925;28;20190;-88
2022/11/09 04:48:45;;;;;;;12.97;8.70;;;8.70;99.90;;;;;;5016304;28;20639;-88
2022/11/09 04:51:19;;;;;;;11.53;8.60;;;8.70;99.90;;;;;;5016334;28;20186;-88
2022/11/09 04:54:12;;;;;;;11.27;8.63;;;8.70;99.90;;;;;;5016787;28;20210;-88
2022/11/09 04:56:46;;;;;;;10.87;8.20;;;8.70;99.90;;;;;;5012531;28;20211;-88
2022/11/09 04:59:14;;;;;;;12.67;8.87;;;8.70;99.90;;;;;;5013449;28;20179;-89
2022/11/09 05:01:40;;;;;;;10.87;8.37;;;8.80;99.90;;;;;;5009742;28;20198;-88
2022/11/09 05:04:06;;;;;;;10.80;7.90;;;8.70;99.90;;;;;;5015850;28;20206;-88
2022/11/09 05:06:32;;;;;;;10.37;8.40;;;8.70;99.90;;;;;;5032213;28;20186;-89
2022/11/09 05:09:05;;;;;;;10.53;8.63;;;8.80;99.90;;;;;;5031966;28;20178;-89
2022/11/09 05:11:32;;;;;;;10.33;8.13;;;8.80;99.90;;;;;;5032750;28;20170;-88
2022/11/09 05:13:59;;;;;;;9.47;7.47;;;8.80;99.90;;;;;;5033087;28;20290;-89
2022/11/09 05:16:26;;;;;;;12.10;8.67;;;8.80;99.90;;;;;;5032830;28;20303;-88
2022/11/09 05:18:54;;;;;;;12.23;10.20;;;8.80;99.90;;;;;;5032358;28;20178;-88
2022/11/09 05:21:26;;;;;;;12.37;8.57;;;8.70;99.90;;;;;;5032517;28;20193;-88
2022/11/09 05:23:58;;;;;;;11.43;9.03;;;8.70;99.90;;;;;;5032964;28;20216;-88
2022/11/09 05:26:28;;;;;;;11.33;8.67;;;8.60;99.90;;;;;;5032536;28;20241;-88
2022/11/09 05:28:54;;;;;;;12.33;10.07;;;8.60;99.90;;;;;;5032977;28;20167;-88
2022/11/09 05:31:20;;;;;;;10.63;8.57;;;8.70;99.90;;;;;;5032776;28;20183;-88
2022/11/09 05:33:49;;;;;;;12.97;9.40;;;8.70;99.90;;;;;;5032702;28;20206;-88
2022/11/09 05:36:15;;;;;;;12.00;9.67;;;8.70;99.90;;;;;;5032185;28;20206;-88
2022/11/09 05:38:40;;;;;;;9.53;8.13;;;8.70;99.90;;;;;;5032317;28;20209;-88
2022/11/09 05:41:06;;;;;;;10.90;8.90;;;8.70;99.90;;;;;;5032324;28;20178;-88
2022/11/09 05:43:32;;;;;;;13.57;10.20;;;8.60;99.90;;;;;;5032608;28;20221;-88
2022/11/09 05:45:58;;;;;;;12.87;9.60;;;8.60;99.90;;;;;;5033229;28;20187;-88
2022/11/09 05:48:24;;;;;;;10.43;8.60;;;8.70;99.90;;;;;;5032356;28;20282;-89
2022/11/09 05:51:05;;;;;;;10.03;8.20;;;8.70;99.90;;;;;;5031985;28;20261;-88
2022/11/09 05:53:32;;;;;;;9.03;8.13;;;8.70;99.90;;;;;;5023937;28;20209;-88
2022/11/09 05:56:06;;;;;;;11.73;9.10;;;8.80;99.90;;;;;;5014121;28;20225;-88
2022/11/09 05:58:35;;;;;;;10.40;9.07;;;8.80;99.90;;;;;;4995776;28;20206;-88
2022/11/09 06:01:04;;;;;;;11.97;8.57;;;8.80;99.90;;;;;;4996397;28;20230;-87
2022/11/09 06:03:30;;;;;;;11.30;8.80;;;8.80;99.90;;;;;;4995584;28;20199;-87
2022/11/09 06:06:00;;;;;;;13.30;8.63;;;8.80;99.90;;;;;;5011768;28;20652;-87
2022/11/09 06:08:25;;;;;;;12.67;8.40;;;8.90;99.90;;;;;;5016053;28;20169;-91
2022/11/09 06:11:00;;;;;;;10.20;7.70;;;8.90;99.90;;;;;;5015579;28;20190;-88
2022/11/09 06:13:27;;;;;;;9.93;7.73;;;8.90;99.90;;;;;;5014893;28;20221;-89
2022/11/09 06:15:58;;;;;;;7.77;6.97;;;8.90;99.90;;;;;;5015098;28;20260;-88
2022/11/09 06:18:25;;;;;;;9.47;7.17;;;8.90;99.90;;;;;;5015157;28;20178;-88
2022/11/09 06:20:53;;;;;;;8.83;6.47;;;9.00;99.90;;;;;;5031314;28;20179;-88
2022/11/09 06:23:24;;;;;;;7.90;5.90;;;9.00;99.90;;;;;;5014977;28;20201;-88
2022/11/09 06:26:08;;;;;;;9.40;7.37;;;9.00;99.90;;;;;;5015086;28;20190;-88
2022/11/09 06:28:34;;;;;;;11.07;7.67;;;9.00;99.90;;;;;;5031807;28;20232;-79
2022/11/09 06:31:01;;;;;;;11.90;8.30;;;9.10;99.90;;;;;;5031895;28;20224;-89
2022/11/09 06:33:29;;;;;;;10.47;7.57;;;9.10;99.90;;;;;;5014748;28;20273;-89
2022/11/09 06:35:56;;;;;;;10.80;7.03;;;9.10;99.90;;;;;;5015022;28;20298;-88
2022/11/09 06:38:25;;;;;;;9.03;6.40;;;9.10;99.90;;;;;;5049125;28;20182;-88
2022/11/09 06:40:56;;;;;;;9.17;7.63;;;9.20;99.90;;;;;;5034390;28;20258;-88
2022/11/09 06:43:22;;;;;;;10.03;7.27;;;9.20;99.90;;;;;;5034906;28;20580;-88
2022/11/09 06:45:49;;;;;;;11.07;8.20;;;9.20;99.90;;;;;;5034496;28;20221;-88
2022/11/09 06:48:15;;;;;;;10.63;9.10;;;9.20;99.90;;;;;;5025492;28;20186;-88
2022/11/09 06:50:41;;;;;;;10.10;8.10;;;9.10;99.90;;;;;;5031002;28;20183;-88
2022/11/09 06:53:10;;;;;;;9.03;7.80;;;9.20;99.90;;;;;;5030969;28;20693;-89
2022/11/09 06:55:36;;;;;;;8.87;7.30;;;9.20;99.90;;;;;;5031174;28;20217;-87
2022/11/09 06:58:14;;;;;;;9.17;7.43;;;9.20;99.90;;;;;;5030655;28;20171;-87
2022/11/09 07:00:42;;;;;;;9.07;7.30;;;9.20;99.90;;;;;;5030964;28;20175;-87
2022/11/09 07:03:16;;;;;;;7.77;6.87;;;9.20;99.90;;;;;;5027727;28;20185;-87
2022/11/09 07:05:49;;;;;;;8.97;7.27;;;9.30;99.90;;;;;;5014907;28;20201;-87
2022/11/09 07:08:19;;;;;;;7.17;5.60;;;9.30;99.90;;;;;;5014596;28;20186;-87
2022/11/09 07:10:45;;;;;;;12.70;8.20;;;9.40;99.90;;;;;;5040369;28;20231;-87
2022/11/09 07:13:11;;;;;;;8.50;7.40;;;9.40;99.90;;;;;;5014351;28;20182;-87
2022/11/09 07:15:39;;;;;;;12.13;8.30;;;9.40;99.90;;;;;;5004700;28;20285;-87
2022/11/09 07:18:14;;;;;;;9.27;8.13;;;9.40;99.90;;;;;;5010761;28;20183;-87
2022/11/09 07:20:40;;;;;;;9.90;7.83;;;9.40;99.90;;;;;;5011069;28;20167;-87
2022/11/09 07:23:07;;;;;;;9.83;7.87;;;9.50;99.90;;;;;;5013477;28;20191;-87
2022/11/09 07:25:33;;;;;;;8.63;6.67;;;9.50;99.90;;;;;;5016548;28;20183;-87
2022/11/09 07:28:06;;;;;;;10.83;7.27;;;9.50;99.90;;;;;;5034265;28;20202;-86
2022/11/09 07:30:37;;;;;;;10.13;6.67;;;9.60;99.90;;;;;;5016582;28;20197;-87
2022/11/09 07:33:21;;;;;;;7.77;6.13;;;9.70;99.90;;;;;;5034027;28;20175;-89
2022/11/09 07:35:47;;;;;;;8.60;6.60;;;9.80;99.90;;;;;;5034505;28;20308;-87
2022/11/09 07:38:19;;;;;;;8.57;5.70;;;9.90;99.90;;;;;;5033880;28;20178;-87
2022/11/09 07:40:45;;;;;;;9.20;5.53;;;10.00;99.90;;;;;;5033899;28;20187;-87
2022/11/09 07:43:11;;;;;;;6.90;4.97;;;10.00;99.90;;;;;;5033977;28;20178;-87
2022/11/09 07:45:39;;;;;;;5.63;5.10;;;10.10;99.90;;;;;;5033844;28;20198;-87
2022/11/09 07:48:08;;;;;;;8.23;4.87;;;10.20;99.90;;;;;;5033979;28;20182;-87
2022/11/09 07:50:35;;;;;;;7.20;5.07;;;10.30;99.90;;;;;;5034269;28;20179;-87
2022/11/09 07:53:02;;;;;;;6.63;5.27;;;10.40;99.90;;;;;;5034091;28;20289;-87
2022/11/09 07:55:30;;;;;;;5.83;4.43;;;10.50;99.90;;;;;;5034044;28;20297;-84
2022/11/09 07:58:07;;;;;;;7.07;4.60;;;10.50;99.90;;;;;;5034153;28;20182;-83
2022/11/09 08:00:35;;;;;;;5.53;3.83;;;10.60;99.90;;;;;;5065364;28;20647;-87
2022/11/09 08:03:01;;;;;;;5.93;4.50;;;10.60;99.90;;;;;;5020179;28;20186;-87
2022/11/09 08:05:29;;;;;;;5.10;4.27;;;10.70;99.90;;;;;;5033016;28;20211;-87
2022/11/09 08:08:01;;;;;;;3.90;3.20;;;10.70;99.90;;;;;;5033369;28;20186;-87
2022/11/09 08:10:29;;;;;;;5.60;2.60;;;10.70;99.90;;;;;;5033787;28;20198;-87
2022/11/09 08:13:04;;;;;;;3.97;2.93;;;10.70;99.90;;;;;;5016190;28;20807;-87
2022/11/09 08:15:32;;;;;;;4.03;2.30;;;10.70;99.90;;;;;;5016108;28;20202;-88
2022/11/09 08:18:03;;;;;;;2.67;2.37;;;10.60;99.90;;;;;;5016868;28;20185;-87
2022/11/09 08:20:29;;;;;;;3.90;2.50;;;10.60;99.90;;;;;;5033352;28;20196;-87
2022/11/09 08:22:56;;;;;;;3.43;2.43;;;10.60;99.90;;;;;;5015639;28;20191;-87
2022/11/09 08:25:22;;;;;;;3.87;2.40;;;10.60;99.90;;;;;;5017011;28;20282;-87
2022/11/09 08:27:47;;;;;;;4.13;2.27;;;10.60;99.90;;;;;;5033102;28;20199;-87
2022/11/09 08:30:19;;;;;;;6.20;4.10;;;10.60;99.90;;;;;;5016644;28;20256;-87
2022/11/09 08:32:47;;;;;;;11.30;6.70;;;10.60;99.90;;;;;;5033228;28;20177;-87
2022/11/09 08:35:16;;;;;;;14.03;9.10;;;10.60;99.90;;;;;;5016388;28;20219;-87
2022/11/09 08:37:46;;;;;;;8.87;5.13;;;10.60;99.90;;;;;;5016494;28;20280;-87
2022/11/09 08:40:14;;;;;;;8.47;4.87;;;10.70;99.90;;;;;;5016615;28;20179;-87
2022/11/09 08:42:40;;;;;;;9.73;6.20;;;10.70;99.90;;;;;;5015575;28;20635;-88
2022/11/09 08:45:07;;;;;;;7.93;5.00;;;10.70;99.90;;;;;;5014914;28;20203;-87
2022/11/09 08:47:33;;;;;;;4.80;3.13;;;10.80;99.90;;;;;;5016201;28;20496;-87
2022/11/09 08:50:00;;;;;;;5.63;3.33;;;10.80;99.90;;;;;;5016383;28;20188;-87
2022/11/09 08:52:26;;;;;;;5.07;4.47;;;10.90;99.90;;;;;;5015775;28;20185;-87
2022/11/09 08:54:52;;;;;;;4.80;4.27;;;10.90;99.90;;;;;;5015626;28;20206;-87
2022/11/09 08:57:18;;;;;;;6.17;4.87;;;10.90;99.90;;;;;;5015997;28;20217;-87
2022/11/09 08:59:45;;;;;;;4.87;4.37;;;11.00;99.90;;;;;;5015958;28;20200;-87
2022/11/09 09:02:12;;;;;;;5.63;5.03;;;11.00;99.90;;;;;;5032701;28;20175;-87
2022/11/09 09:04:38;;;;;;;7.23;5.80;;;11.10;99.90;;;;;;5016337;28;20211;-87
2022/11/09 09:07:04;;;;;;;7.53;6.40;;;11.10;99.90;;;;;;5032356;28;20183;-87
2022/11/09 09:09:30;;;;;;;7.57;6.60;;;11.10;99.90;;;;;;5032626;28;20185;-87
2022/11/09 09:11:57;;;;;;;9.43;6.40;;;11.10;99.90;;;;;;5032672;28;20202;-87
2022/11/09 09:14:23;;;;;;;7.73;5.43;;;11.10;99.90;;;;;;5032241;28;20208;-87
2022/11/09 09:16:49;;;;;;;9.43;6.53;;;11.20;99.90;;;;;;5031536;28;20218;-82
2022/11/09 09:19:17;;;;;;;8.17;6.33;;;11.20;99.90;;;;;;5032292;28;20420;-88
2022/11/09 09:21:43;;;;;;;4.50;3.83;;;11.20;99.90;;;;;;5030471;28;20186;-88
2022/11/09 09:24:26;;;;;;;4.20;3.03;;;11.30;99.90;;;;;;5015500;28;20305;-87
2022/11/09 09:26:52;;;;;;;6.37;4.17;;;11.30;99.90;;;;;;5032594;28;20172;-88
2022/11/09 09:29:30;;;;;;;9.70;6.03;;;11.40;99.90;;;;;;5032094;28;20176;-86
2022/11/09 09:31:56;;;;;;;14.87;7.07;;;11.40;99.90;;;;;;5016382;28;20194;-87
2022/11/09 09:34:22;;;;;;;9.23;5.70;;;11.50;99.90;;;;;;5018492;28;20656;-86
2022/11/09 09:36:47;;;;;;;4.17;3.03;;;11.60;99.90;;;;;;5049863;28;20251;-86
2022/11/09 09:39:13;;;;;;;6.93;4.90;;;11.60;99.90;;;;;;5049049;28;20186;-87
2022/11/09 09:41:41;;;;;;;9.17;5.10;;;11.70;99.90;;;;;;5032822;28;20189;-86
2022/11/09 09:44:37;;;;;;;8.50;5.03;;;11.80;99.90;;;;;;5031391;28;20300;-87
2022/11/09 09:47:18;;;;;;;7.17;5.03;;;12.00;99.90;;;;;;5031563;28;20662;-87
2022/11/09 09:49:56;;;;;;;6.70;4.67;;;12.20;99.90;;;;;;5013958;28;20187;-87
2022/11/09 09:52:55;;;;;;;4.03;3.63;;;12.40;99.90;;;;;;5014917;28;20184;-88
2022/11/09 09:55:40;;;;;;;4.97;3.60;;;12.60;99.90;;;;;;5032337;28;20215;-87
2022/11/09 09:58:12;;;;;;;5.03;4.37;;;12.90;99.90;;;;;;5015465;28;20658;-87
2022/11/09 10:00:40;;;;;;;6.93;3.73;;;13.10;99.90;;;;;;5015806;28;20167;-87
2022/11/09 10:03:15;;;;;;;5.30;3.80;;;13.30;99.90;;;;;;5031797;28;20183;-87
2022/11/09 10:05:50;;;;;;;3.70;3.03;;;13.40;99.90;;;;;;5031984;28;20194;-87
2022/11/09 10:08:38;;;;;;;3.00;2.70;;;13.50;99.90;;;;;;5030617;28;20243;-87
2022/11/09 10:11:10;;;;;;;2.90;2.40;;;13.70;99.90;;;;;;5031790;28;20166;-87
2022/11/09 10:14:06;;;;;;;3.60;2.70;;;13.70;99.90;;;;;;5048173;28;20222;-87
2022/11/09 10:16:54;;;;;;;4.87;2.63;;;13.90;99.90;;;;;;5036549;28;20209;-87
2022/11/09 10:19:38;;;;;;;2.80;2.47;;;13.90;99.90;;;;;;5031738;28;20178;-87
2022/11/09 10:22:30;;;;;;;3.90;2.47;;;14.10;99.90;;;;;;5032687;28;20170;-86
2022/11/09 10:25:12;;;;;;;2.80;2.13;;;14.20;99.90;;;;;;5031090;28;20204;-87
2022/11/09 10:28:09;;;;;;;3.73;2.10;;;14.30;99.90;;;;;;5031743;28;20178;-87
2022/11/09 10:30:35;;;;;;;4.07;2.37;;;14.40;99.90;;;;;;5044422;28;20248;-87
2022/11/09 10:33:12;;;;;;;8.93;6.80;;;14.50;99.90;;;;;;5014572;28;20178;-88
2022/11/09 10:36:00;;;;;;;4.33;3.23;;;14.50;99.90;;;;;;5015439;28;20216;-87
2022/11/09 10:38:37;;;;;;;3.67;2.20;;;14.60;99.90;;;;;;5011838;28;20171;-88
2022/11/09 10:41:33;;;;;;;6.00;2.40;;;14.70;99.90;;;;;;5030486;28;20264;-87
2022/11/09 10:44:19;;;;;;;3.40;2.57;;;14.70;99.90;;;;;;5031752;28;20202;-87
2022/11/09 10:47:11;;;;;;;2.90;2.60;;;14.80;99.90;;;;;;5031677;28;20217;-88
2022/11/09 10:50:25;;;;;;;3.37;2.33;;;14.80;99.90;;;;;;5031880;28;20233;-88
2022/11/09 10:53:18;;;;;;;3.57;1.70;;;14.90;99.90;;;;;;5031798;28;20179;-87
2022/11/09 10:56:11;;;;;;;2.47;2.00;;;14.80;99.90;;;;;;5031307;28;20228;-87
2022/11/09 10:58:56;;;;;;;3.07;1.63;;;14.90;99.90;;;;;;5031725;28;20221;-87
2022/11/09 11:01:47;;;;;;;2.37;1.80;;;14.90;99.90;;;;;;5035534;28;20221;-87
2022/11/09 11:04:31;;;;;;;1.90;1.70;;;14.90;99.90;;;;;;5035301;28;20232;-87
2022/11/09 11:07:21;;;;;;;3.87;2.00;;;14.90;99.90;;;;;;5049250;28;20198;-87
2022/11/09 11:10:15;;;;;;;2.87;1.50;;;14.90;99.90;;;;;;5049860;28;20170;-87
2022/11/09 11:13:00;;;;;;;4.70;1.70;;;14.90;99.90;;;;;;5049644;28;20190;-87
2022/11/09 11:15:44;;;;;;;2.83;1.70;;;14.90;99.90;;;;;;5049693;28;20221;-87
2022/11/09 11:18:31;;;;;;;2.43;1.67;;;14.90;99.90;;;;;;5049481;28;20251;-87
2022/11/09 11:21:18;;;;;;;2.60;1.77;;;14.80;99.90;;;;;;5015537;28;20175;-87
2022/11/09 11:24:13;;;;;;;2.17;1.73;;;14.80;99.90;;;;;;5031308;28;20230;-87
2022/11/09 11:27:41;;;;;;;2.60;1.60;;;14.70;99.90;;;;;;5034928;28;20177;-87
2022/11/09 11:30:34;;;;;;;3.07;1.73;;;14.70;99.90;;;;;;5048271;28;20193;-87
2022/11/09 11:33:20;;;;;;;2.47;1.67;;;14.70;99.90;;;;;;5036146;28;20170;-87
2022/11/09 11:36:12;;;;;;;2.33;1.80;;;14.70;99.90;;;;;;5035571;28;20233;-85
2022/11/09 11:39:34;;;;;;;1.83;1.57;;;14.70;99.90;;;;;;5034667;28;20185;-87
2022/11/09 11:42:41;;;;;;;1.50;1.40;;;14.70;99.90;;;;;;5035221;28;20245;-87
2022/11/09 11:45:34;;;;;;;1.80;1.40;;;14.70;99.90;;;;;;5032255;28;20280;-87
2022/11/09 11:48:42;;;;;;;3.40;1.70;;;14.70;99.90;;;;;;5035039;28;20189;-87
2022/11/09 11:51:36;;;;;;;3.80;1.77;;;14.70;99.90;;;;;;5034362;28;20244;-87
2022/11/09 11:54:29;;;;;;;1.70;1.60;;;14.70;99.90;;;;;;5034595;28;20217;-87
2022/11/09 11:57:39;;;;;;;4.27;3.10;;;14.70;99.90;;;;;;5014876;28;20206;-87
2022/11/09 12:00:24;;;;;;;4.47;2.60;;;14.70;99.90;;;;;;5029813;28;20174;-87
2022/11/09 12:03:13;;;;;;;4.13;2.50;;;14.70;99.90;;;;;;5033743;28;20244;-87
2022/11/09 12:06:21;;;;;;;3.73;1.90;;;14.70;99.90;;;;;;5034185;28;20190;-87
2022/11/09 12:09:43;;;;;;;2.17;1.80;;;14.70;99.90;;;;;;5014901;28;20237;-87
2022/11/09 12:12:30;;;;;;;2.73;1.83;;;14.70;99.90;;;;;;5028394;28;20171;-88
2022/11/09 12:15:32;;;;;;;1.87;1.30;;;14.70;99.90;;;;;;5028368;28;20253;-88
2022/11/09 12:18:44;;;;;;;2.53;1.60;;;14.60;99.90;;;;;;5039182;28;20316;-88
2022/11/09 12:21:38;;;;;;;1.50;1.40;;;14.60;99.90;;;;;;5033643;28;20297;-87
2022/11/09 12:24:47;;;;;;;3.63;1.80;;;14.70;99.90;;;;;;5033867;28;20217;-87
2022/11/09 12:27:46;;;;;;;1.30;1.17;;;14.70;99.90;;;;;;5039195;28;20205;-87
2022/11/09 12:30:56;;;;;;;1.77;1.37;;;14.80;99.90;;;;;;5053799;28;20235;-87
2022/11/09 12:33:48;;;;;;;1.67;1.27;;;14.80;99.90;;;;;;5053702;28;20267;-87
2022/11/09 12:36:38;;;;;;;3.40;1.40;;;14.90;99.90;;;;;;5040333;28;20218;-87
2022/11/09 12:39:48;;;;;;;1.47;1.30;;;14.90;99.90;;;;;;5029327;28;20590;-87
2022/11/09 12:42:42;;;;;;;1.53;1.30;;;14.90;99.90;;;;;;5025861;28;20189;-87
2022/11/09 12:45:40;;;;;;;1.40;1.30;;;14.90;99.90;;;;;;5033342;28;20212;-87
2022/11/09 12:48:34;;;;;;;2.47;1.50;;;14.90;99.90;;;;;;5034056;28;20233;-87
2022/11/09 12:51:19;;;;;;;2.17;1.30;;;14.90;99.90;;;;;;5020313;28;20178;-87
2022/11/09 12:54:10;;;;;;;1.53;1.40;;;14.90;99.90;;;;;;5040679;28;20255;-87
2022/11/09 12:57:01;;;;;;;3.53;2.10;;;14.80;99.90;;;;;;5045167;28;20281;-87
2022/11/09 12:59:48;;;;;;;2.77;1.50;;;14.80;99.90;;;;;;5033119;28;20217;-87
2022/11/09 13:02:53;;;;;;;2.10;1.23;;;14.80;99.90;;;;;;5028947;28;20182;-87
2022/11/09 13:05:38;;;;;;;1.97;1.20;;;14.80;99.90;;;;;;5032690;28;20677;-87
2022/11/09 13:08:31;;;;;;;3.03;2.37;;;14.90;99.90;;;;;;5030205;28;20201;-87
2022/11/09 13:11:25;;;;;;;3.30;2.40;;;14.80;99.90;;;;;;5033109;28;20225;-87
2022/11/09 13:14:22;;;;;;;4.23;1.60;;;14.80;99.90;;;;;;5022051;28;20209;-87
2022/11/09 13:17:25;;;;;;;3.83;2.20;;;14.80;99.90;;;;;;5046732;28;20257;-87
2022/11/09 13:20:34;;;;;;;2.53;2.00;;;14.80;99.90;;;;;;5056161;28;20277;-87
2022/11/09 13:23:30;;;;;;;2.53;1.80;;;14.80;99.90;;;;;;5028633;28;20199;-87